Huvudsida
METAR-TAF:

METAR-TAF

Flygplatser :

Kastrups flygplats

Köpenhamn, Danmark

latitud: 55-37N, longitud: 012-39E, höjd: 5 m

Aktuellt väderrapport

Denna rapport gjordes för 17 minuter sedan, klockan 00:20 UTC
Vind 5 kt från syd/sydväst
Temperatur 9°C
Fuktighet 93%
Tryck 1028 hPa
Sikt: 3800 m
Brutna moln på en höjd av 800 ft
Brutna moln på en höjd av 8000 ft
lätt regn

METAR: EKCH 150020Z 20005KT 3800 -RA BKN008 BKN080 09/08 Q1028 TEMPO 5000 BKN012

Tid: 01:37 (00:37 UTC)

Väderprognos

Denna rapport gjordes för 1 timme och 37 minuter sedan, klockan 23:00 UTC
Prognos gäller från 15 kl. 00 UTC till 15 kl. 24 UTC
Vind 8 kt från syd/sydväst
Sikt 10 km eller mer
Brutna moln på en höjd av 1500 ft
Temporärt
från 15 kl. 00 UTC till 15 kl. 04 UTC
Sikt: 4000 m
Brutna moln på en höjd av 800 ft
fuktdis
Temporärt
från 15 kl. 04 UTC till 15 kl. 10 UTC
Sikt: 4000 m
fuktdis

TAF: EKCH 142300Z 1500/1524 20008KT 9999 BKN015 TEMPO 1500/1504 4000 BR BKN008 TEMPO 1504/1510 4000 BR

Aktuella väderrapporter och prognoser från 4000 flygplatser (METAR- och TAF-rapporter).

De tillgängliga stationerna syns som gula och röda prickar på kartan.

För musen över prickarna för att se namnen på stationerna.

Klicka sedan för att få väderrapporter och prognoser.

För att ändra kartan: Klicka på de gröna knapparna med ett svart kors på för att zooma in; den gröna knappen med ett streck på för att zooma ut; eller på de gröna pilarna för angränsande kartor.


METAR-TAF: